»·PEaware :: N98TP KBFL-L11

N98TP :: KBFL-L11

FLIGHT INFORMATION

Flight Status: Arrived
Operator: Privately registered:
United States
More flights under this callsign
Pilot: Alan J. (5709)
Aircraft: GRUMMAN AERO HU-16 SA-16 ALBATROSS
(U16)
More flights by this aircraft type
Origin: KBFL Meadows
United States
Destination: L11 Pebbly Beach
United States
More flights between these airports :: More routes between these airports
Route: +EHF V23 GMN V299 FIM VTU V27 SXC
File this flight plan on PilotEdge
Remarks: HU-16 Albatross Amphibious Twin
Altitude:
(Current/Filed)
11,000ft
Speed:
(Current/Filed)
160kts
Departed: 26-Sep-17 10:26 AM
Arrived: 26-Sep-17 11:29 AM
Distance/Time
Traveled:
131nm/1:03
Distance/Time
To Go:
Arrived

Flight Plot

Page will automatically refresh every two minutes.

Flight plan parsing failed; only flown route is shown


Map Options




Map Legend


Flown Route
Filed Route
Departure Airport
Arrival Airport
Navaid (VOR, NDB)
Fix

Horizontal Profiles

Position Reports

Time Latitude Longitude Heading Altitude Ground
Speed
26-Sep-17 10:19 35.426218 -119.042680 179 488ft 0kts
26-Sep-17 10:20 35.426218 -119.042680 179 488ft 0kts
26-Sep-17 10:21 35.426218 -119.042680 179 488ft 0kts
26-Sep-17 10:22 35.426218 -119.042680 179 488ft 0kts
26-Sep-17 10:23 35.426218 -119.042680 179 488ft 0kts
26-Sep-17 10:24 35.425937 -119.042754 209 487ft 6kts
26-Sep-17 10:25 35.425505 -119.043265 201 485ft 0kts
26-Sep-17 10:26 35.425557 -119.043312 314 485ft 3kts
26-Sep-17 10:27 35.425288 -119.044497 275 482ft 0kts
26-Sep-17 10:28 35.425289 -119.044501 275 482ft 0kts
26-Sep-17 10:29 35.425750 -119.046377 310 480ft 13kts
26-Sep-17 10:30 35.431745 -119.053719 318 496ft 99kts
26-Sep-17 10:31 35.448215 -119.076130 310 1415ft 99kts
26-Sep-17 10:32 35.460791 -119.104602 306 2392ft 94kts
26-Sep-17 10:33 35.473568 -119.136779 260 3031ft 116kts
26-Sep-17 10:34 35.449288 -119.135237 142 3947ft 115kts
26-Sep-17 10:35 35.422565 -119.111989 140 4958ft 120kts
26-Sep-17 10:36 35.397902 -119.088157 136 5903ft 115kts
26-Sep-17 10:37 35.366982 -119.072523 155 6920ft 127kts
26-Sep-17 10:38 35.332644 -119.059776 160 7928ft 129kts
26-Sep-17 10:39 35.297837 -119.046091 160 8935ft 134kts
26-Sep-17 10:40 35.262441 -119.032287 159 9935ft 133kts
26-Sep-17 10:41 35.227893 -119.019066 158 10915ft 127kts
26-Sep-17 10:42 35.188329 -119.004007 160 11039ft 169kts
26-Sep-17 10:43 35.141760 -118.986591 161 11032ft 178kts
26-Sep-17 10:44 35.094586 -118.969249 160 11030ft 175kts
26-Sep-17 10:45 35.048265 -118.952625 162 11031ft 173kts
26-Sep-17 10:46 35.002269 -118.934692 161 11034ft 175kts
26-Sep-17 10:47 34.955457 -118.917355 161 11032ft 176kts
26-Sep-17 10:48 34.908183 -118.900008 162 11030ft 178kts
26-Sep-17 10:49 34.861320 -118.882199 155 11029ft 176kts
26-Sep-17 10:50 34.815853 -118.859486 172 11006ft 180kts
26-Sep-17 10:51 34.765797 -118.860780 178 11003ft 181kts
26-Sep-17 10:52 34.716077 -118.860413 178 11003ft 176kts
26-Sep-17 10:53 34.667696 -118.859759 178 11005ft 172kts
26-Sep-17 10:54 34.620019 -118.859309 178 11003ft 168kts
26-Sep-17 10:55 34.575839 -118.865326 198 11000ft 163kts
26-Sep-17 10:56 34.531866 -118.872789 183 11018ft 158kts
26-Sep-17 10:57 34.488329 -118.876050 181 10996ft 155kts
26-Sep-17 10:58 34.446252 -118.877844 179 10971ft 148kts
26-Sep-17 10:59 34.406407 -118.876176 178 10927ft 140kts
26-Sep-17 11:00 34.369663 -118.885714 191 10893ft 130kts
26-Sep-17 11:01 34.335739 -118.894341 191 10843ft 118kts
26-Sep-17 11:02 34.309339 -118.911743 209 10756ft 98kts
26-Sep-17 11:03 34.302591 -118.934082 237 9999ft 101kts
26-Sep-17 11:04 34.286038 -118.955589 211 9630ft 84kts
26-Sep-17 11:05 34.264013 -118.953042 169 9092ft 88kts
26-Sep-17 11:06 34.242623 -118.962967 208 8773ft 85kts
26-Sep-17 11:07 34.223321 -118.982254 229 8384ft 110kts
26-Sep-17 11:08 34.215381 -118.994086 235 8347ft 116kts
26-Sep-17 11:09 34.185858 -119.036833 224 7612ft 190kts
26-Sep-17 11:10 34.139329 -119.069927 207 7548ft 191kts
26-Sep-17 11:11 34.095001 -119.081804 137 8141ft 173kts
26-Sep-17 11:12 34.081739 -119.026056 100 8151ft 179kts
26-Sep-17 11:13 34.065667 -118.969525 139 8128ft 187kts
26-Sep-17 11:14 34.019416 -118.941117 150 8151ft 189kts
26-Sep-17 11:15 33.970691 -118.915526 151 8151ft 192kts
26-Sep-17 11:16 33.924559 -118.883146 145 8150ft 192kts
26-Sep-17 11:17 33.880109 -118.847854 144 8148ft 191kts
26-Sep-17 11:18 33.836303 -118.811685 143 8147ft 191kts
26-Sep-17 11:19 33.792510 -118.775072 143 8149ft 191kts
26-Sep-17 11:20 33.747979 -118.737698 142 7715ft 208kts
26-Sep-17 11:21 33.700612 -118.694975 140 6718ft 214kts
26-Sep-17 11:22 33.652598 -118.652865 142 5715ft 211kts
26-Sep-17 11:23 33.606391 -118.613498 141 5140ft 188kts
26-Sep-17 11:24 33.568993 -118.581836 141 5146ft 172kts
26-Sep-17 11:25 33.530246 -118.548945 142 5149ft 169kts
26-Sep-17 11:26 33.492394 -118.515734 128 5095ft 166kts
26-Sep-17 11:27 33.473114 -118.464988 113 4657ft 167kts
26-Sep-17 11:28 33.447445 -118.418859 124 4037ft 168kts
26-Sep-17 11:29 33.419218 -118.375262 126 3166ft 170kts
26-Sep-17 11:30 33.392375 -118.335720 131 2183ft 149kts
26-Sep-17 11:31 33.368064 -118.305713 121 1419ft 97kts
26-Sep-17 11:32 33.342077 -118.299751 189 258ft 85kts
26-Sep-17 11:33 33.337857 -118.310652 41 2ft 4kts
26-Sep-17 11:34 33.337569 -118.310701 273 2ft 1kts
26-Sep-17 11:35 33.337185 -118.311347 239 2ft 0kts

Navigation Log

Ident Type
Flight plan parsing failed, navigation log unavailable